北京 の空港の天気 - METARとTAF

北京首都国際空港 ( ZBAA / PEK ) - 中国 北京市
飛行場実況気象(Metar)
観測時間09/23 06:30 CST (09/22 22:30 UTC)
風向・風速北 1m/s
視程10km以上
天気現象
なし
気温16℃
湿度94%
気圧1016hPa
METARZBAA 222230Z 01001MPS CAVOK 16/15 Q1016 NOSIG
過去の天気等 Google飛行場航空写真 Wunderground天気予報

過去48時間のMETAR

飛行場予報(TAF)
発表時間: 9/22 23:01 CST (9/22 15:01 UTC)
予報対象時間: 23日2時 CST ~ 24日2時 CST
風向・風速南 4m/s
視程10km以上
なし
TAF ZBAA 221501Z 2218/2318 18004MPS CAVOK TX28/2307Z TN14/2221Z